Time;durP1;ratioP1;P1;durP2;ratioP2;P2;SDS_P1;SDS_P2;PMS_P1;PMS_P2;Temp;Humidity;BMP_temperature;BMP_pressure;BME280_temperature;BME280_humidity;BME280_pressure;Samples;Min_cycle;Max_cycle;Signal;HPM_P1;HPM_P2
2022/09/28 00:00:40;;;;;;;0.07;0.07;;;;;;;10.33;96.95;94034.53;4379476;32;20188;-61
2022/09/28 00:03:09;;;;;;;0.10;0.10;;;;;;;10.15;97.10;94033.06;4391460;32;20203;-61
2022/09/28 00:05:36;;;;;;;0.10;0.10;;;;;;;10.15;97.10;94030.41;4390975;32;20188;-61
2022/09/28 00:08:01;;;;;;;0.00;0.00;;;;;;;10.22;96.77;94027.25;4385960;32;20223;-61
2022/09/28 00:10:26;;;;;;;0.10;0.10;;;;;;;10.17;96.73;94025.56;4363162;32;20199;-61
2022/09/28 00:12:54;;;;;;;0.00;0.00;;;;;;;9.99;96.48;94019.59;4401995;32;20198;-61
2022/09/28 00:15:21;;;;;;;0.00;0.00;;;;;;;9.88;97.09;94015.75;4393003;32;20191;-61
2022/09/28 00:17:47;;;;;;;0.00;0.00;;;;;;;9.95;96.92;94010.75;4400173;32;20290;-61
2022/09/28 00:20:16;;;;;;;0.10;0.10;;;;;;;10.00;96.59;94005.25;4391465;32;20243;-61
2022/09/28 00:22:42;;;;;;;1.10;0.20;;;;;;;10.10;96.58;94001.44;4414897;32;20305;-62
2022/09/28 00:25:09;;;;;;;0.40;0.33;;;;;;;10.08;96.63;93995.69;4399239;32;20193;-61
2022/09/28 00:27:35;;;;;;;0.10;0.10;;;;;;;10.10;96.42;93993.50;4400011;32;20187;-61
2022/09/28 00:30:03;;;;;;;0.00;0.00;;;;;;;10.05;96.15;93988.37;4386404;32;20206;-60
2022/09/28 00:32:28;;;;;;;0.10;0.03;;;;;;;9.95;96.26;93981.59;4347235;32;20252;-62
2022/09/28 00:34:55;;;;;;;0.00;0.00;;;;;;;10.06;96.02;93976.69;4385277;32;20256;-61
2022/09/28 00:37:22;;;;;;;0.03;0.03;;;;;;;9.92;96.53;93966.34;4384722;32;20238;-61
2022/09/28 00:39:47;;;;;;;0.10;0.10;;;;;;;9.97;96.56;93958.22;4406269;32;20191;-61
2022/09/28 00:42:22;;;;;;;0.00;0.00;;;;;;;10.06;95.33;93960.78;4387315;32;20188;-61
2022/09/28 00:44:56;;;;;;;0.10;0.10;;;;;;;10.14;95.85;93964.50;4385852;32;20192;-62
2022/09/28 00:47:50;;;;;;;2.43;0.20;;;;;;;10.09;95.56;93951.44;4404611;32;20238;-62
2022/09/28 00:50:34;;;;;;;0.00;0.00;;;;;;;9.95;95.28;93952.47;4372984;32;20274;-61
2022/09/28 00:53:08;;;;;;;0.00;0.00;;;;;;;10.10;94.59;93945.81;4392589;32;20192;-61
2022/09/28 00:55:49;;;;;;;0.00;0.00;;;;;;;9.90;95.07;93949.22;4385566;32;20270;-62
2022/09/28 00:58:26;;;;;;;0.20;0.20;;;;;;;10.16;94.57;93946.41;4368049;32;20230;-62
2022/09/28 01:01:10;;;;;;;0.00;0.00;;;;;;;10.07;94.64;93946.44;4393430;32;20184;-61
2022/09/28 01:03:44;;;;;;;0.00;0.00;;;;;;;9.97;94.17;93936.25;4360379;32;20214;-61
2022/09/28 01:06:35;;;;;;;0.00;0.00;;;;;;;9.85;94.32;93936.16;4348461;32;20187;-61
2022/09/28 01:09:05;;;;;;;0.10;0.10;;;;;;;9.96;94.88;93934.69;4377927;32;20203;-61
2022/09/28 01:11:45;;;;;;;0.60;0.20;;;;;;;9.97;94.69;93926.44;4378992;32;20191;-61
2022/09/28 01:14:15;;;;;;;0.00;0.00;;;;;;;10.16;93.75;93919.91;4384114;32;20423;-61
2022/09/28 01:17:15;;;;;;;0.00;0.00;;;;;;;10.02;94.29;93919.37;4385638;32;20199;-61
2022/09/28 01:20:18;;;;;;;0.00;0.00;;;;;;;10.07;93.84;93909.34;4400590;32;20268;-62
2022/09/28 01:23:13;;;;;;;0.00;0.00;;;;;;;10.06;93.42;93909.69;4358948;32;20187;-61
2022/09/28 01:25:58;;;;;;;0.00;0.00;;;;;;;10.09;93.51;93883.31;4384024;32;20188;-61
2022/09/28 01:28:29;;;;;;;0.00;0.00;;;;;;;9.89;92.34;93895.47;4371640;32;20259;-61
2022/09/28 01:31:20;;;;;;;0.00;0.00;;;;;;;9.89;92.67;93894.69;4399657;32;20188;-61
2022/09/28 01:34:10;;;;;;;0.00;0.00;;;;;;;9.87;92.75;93892.38;4382342;32;20188;-60
2022/09/28 01:36:59;;;;;;;0.00;0.00;;;;;;;10.00;92.54;93875.44;4325291;32;20176;-64
2022/09/28 01:39:33;;;;;;;0.00;0.00;;;;;;;9.89;92.63;93876.94;4373870;32;20200;-61
2022/09/28 01:42:04;;;;;;;0.00;0.00;;;;;;;9.91;92.63;93871.31;4384520;32;20203;-61
2022/09/28 01:44:38;;;;;;;1.40;0.40;;;;;;;9.94;93.06;93863.50;4392175;32;20243;-62
2022/09/28 01:47:15;;;;;;;0.00;0.00;;;;;;;10.13;92.15;93857.72;4406686;32;20209;-61
2022/09/28 01:49:49;;;;;;;0.10;0.10;;;;;;;10.06;92.35;93854.03;4392626;32;20192;-61
2022/09/28 01:52:40;;;;;;;0.00;0.00;;;;;;;9.98;92.03;93845.06;4370337;32;20192;-61
2022/09/28 01:55:11;;;;;;;0.07;0.07;;;;;;;9.88;92.33;93843.59;4344255;32;20260;-61
2022/09/28 01:58:09;;;;;;;1.30;0.30;;;;;;;10.04;91.90;93832.41;4401020;32;20202;-61
2022/09/28 02:00:43;;;;;;;0.00;0.00;;;;;;;9.78;91.01;93833.38;4367218;32;20301;-60
2022/09/28 02:03:23;;;;;;;0.00;0.00;;;;;;;9.99;91.15;93833.38;4395659;32;20209;-60
2022/09/28 02:06:05;;;;;;;0.03;0.03;;;;;;;9.95;91.34;93816.59;4376949;32;20200;-60
2022/09/28 02:08:43;;;;;;;0.00;0.00;;;;;;;10.07;90.36;93807.91;4390222;32;20206;-61
2022/09/28 02:11:21;;;;;;;0.10;0.10;;;;;;;9.97;90.98;93798.50;4400583;32;20210;-61
2022/09/28 02:14:09;;;;;;;0.03;0.03;;;;;;;10.34;91.56;93796.75;4372206;32;20301;-61
2022/09/28 02:16:46;;;;;;;0.00;0.00;;;;;;;10.08;90.91;93789.03;4385221;32;20188;-61
2022/09/28 02:19:20;;;;;;;0.00;0.00;;;;;;;10.24;90.27;93779.38;4376071;32;20176;-61
2022/09/28 02:22:22;;;;;;;0.00;0.00;;;;;;;10.45;90.12;93786.47;4376254;32;20319;-60
2022/09/28 02:25:42;;;;;;;0.10;0.10;;;;;;;10.41;90.58;93769.66;4393810;32;20230;-61
2022/09/28 02:28:12;;;;;;;0.13;0.13;;;;;;;10.33;89.77;93764.16;4385535;32;20273;-61
2022/09/28 02:30:41;;;;;;;0.10;0.10;;;;;;;10.58;88.89;93754.34;4394305;32;20187;-61
2022/09/28 02:33:43;;;;;;;1.60;0.60;;;;;;;10.50;89.78;93757.09;4391330;32;20192;-61
2022/09/28 02:36:11;;;;;;;0.00;0.00;;;;;;;10.46;89.77;93756.22;4385323;32;20199;-61
2022/09/28 02:38:38;;;;;;;0.07;0.07;;;;;;;10.35;87.86;93749.81;4375743;32;20184;-61
2022/09/28 02:41:32;;;;;;;0.00;0.00;;;;;;;10.38;89.18;93746.50;4386059;32;20214;-61
2022/09/28 02:44:17;;;;;;;0.13;0.13;;;;;;;10.51;89.69;93740.09;4383789;32;20214;-61
2022/09/28 02:46:59;;;;;;;0.00;0.00;;;;;;;10.58;88.77;93735.78;4337962;32;20297;-61
2022/09/28 02:49:48;;;;;;;8.07;0.30;;;;;;;10.56;88.37;93739.88;4338114;32;20207;-61
2022/09/28 02:52:46;;;;;;;0.13;0.10;;;;;;;10.40;87.87;93726.47;4387644;32;20176;-61
2022/09/28 02:55:50;;;;;;;1.50;0.67;;;;;;;10.39;88.22;93729.50;4359972;32;20252;-61
2022/09/28 02:58:51;;;;;;;0.10;0.10;;;;;;;10.57;87.51;93726.28;4376575;32;20181;-61
2022/09/28 03:01:40;;;;;;;0.10;0.10;;;;;;;10.68;86.27;93722.06;4382219;32;20221;-61
2022/09/28 03:04:38;;;;;;;0.03;0.03;;;;;;;10.65;86.70;93721.97;4372096;32;20205;-61
2022/09/28 03:07:21;;;;;;;3.73;0.50;;;;;;;10.71;86.64;93723.28;4386582;32;20256;-61
2022/09/28 03:10:17;;;;;;;1.23;0.43;;;;;;;10.61;87.13;93713.87;4373991;32;20259;-61
2022/09/28 03:12:47;;;;;;;0.00;0.00;;;;;;;10.64;87.02;93709.81;4382684;32;20196;-61
2022/09/28 03:15:31;;;;;;;0.00;0.00;;;;;;;10.61;87.62;93700.63;4384977;32;20210;-61
2022/09/28 03:17:57;;;;;;;0.00;0.00;;;;;;;10.64;87.48;93693.88;4341828;32;20189;-61
2022/09/28 03:20:26;;;;;;;0.00;0.00;;;;;;;10.23;87.76;93689.59;4346872;32;20222;-61
2022/09/28 03:22:54;;;;;;;0.00;0.00;;;;;;;10.25;89.06;93695.34;4405115;32;20191;-61
2022/09/28 03:25:30;;;;;;;0.50;0.23;;;;;;;10.36;88.79;93691.16;4371595;32;20203;-61
2022/09/28 03:27:59;;;;;;;0.00;0.00;;;;;;;10.40;88.01;93694.69;4387148;32;20202;-64
2022/09/28 03:30:24;;;;;;;0.00;0.00;;;;;;;10.37;88.24;93697.25;4388951;32;20226;-62
2022/09/28 03:32:59;;;;;;;0.37;0.37;;;;;;;10.18;88.91;93695.88;4401619;32;20227;-62
2022/09/28 03:35:29;;;;;;;0.10;0.10;;;;;;;10.33;88.73;93697.91;4426288;32;20183;-61
2022/09/28 03:37:56;;;;;;;0.20;0.17;;;;;;;10.19;89.37;93694.00;4389428;32;20219;-61
2022/09/28 03:40:23;;;;;;;0.30;0.30;;;;;;;10.29;89.08;93699.66;4365865;32;20189;-61
2022/09/28 03:42:49;;;;;;;0.00;0.00;;;;;;;10.22;89.51;93693.34;4364195;32;20302;-61
2022/09/28 03:45:15;;;;;;;0.30;0.30;;;;;;;10.23;88.92;93690.37;4384722;32;20195;-61
2022/09/28 03:47:47;;;;;;;0.00;0.00;;;;;;;10.19;88.81;93689.47;4396451;32;20244;-61
2022/09/28 03:50:15;;;;;;;0.00;0.00;;;;;;;10.19;88.79;93689.47;4403189;32;20216;-61
2022/09/28 03:52:42;;;;;;;0.00;0.00;;;;;;;10.36;88.54;93687.75;4397171;32;20180;-60
2022/09/28 03:55:08;;;;;;;0.00;0.00;;;;;;;10.22;88.94;93672.91;4382341;32;20215;-61
2022/09/28 03:57:33;;;;;;;0.00;0.00;;;;;;;10.19;88.90;93673.59;4403045;32;20187;-61
2022/09/28 03:59:59;;;;;;;0.00;0.00;;;;;;;10.20;89.19;93675.13;4366349;32;20181;-63
2022/09/28 04:02:27;;;;;;;0.00;0.00;;;;;;;10.24;88.76;93675.25;4393857;32;20196;-61
2022/09/28 04:04:55;;;;;;;0.00;0.00;;;;;;;10.17;88.83;93673.13;4385486;32;20231;-61
2022/09/28 04:07:25;;;;;;;0.00;0.00;;;;;;;10.15;88.92;93662.09;4398233;32;20247;-61
2022/09/28 04:09:51;;;;;;;0.00;0.00;;;;;;;9.99;88.87;93656.66;4378001;32;20254;-61
2022/09/28 04:12:18;;;;;;;0.40;0.13;;;;;;;10.01;88.81;93661.63;4392044;32;20276;-61
2022/09/28 04:14:44;;;;;;;0.00;0.00;;;;;;;10.00;88.75;93654.78;4383492;32;20180;-61
2022/09/28 04:17:10;;;;;;;0.07;0.07;;;;;;;9.98;88.79;93656.97;4399553;32;20192;-60
2022/09/28 04:19:36;;;;;;;0.30;0.30;;;;;;;10.05;89.04;93659.87;4391767;32;20190;-61
2022/09/28 04:22:06;;;;;;;0.00;0.00;;;;;;;10.07;88.87;93652.37;4393414;32;20220;-60
2022/09/28 04:24:33;;;;;;;4.13;0.23;;;;;;;10.16;88.34;93646.97;4401436;32;20229;-61
2022/09/28 04:29:14;;;;;;;0.10;0.10;;;;;;;10.16;88.69;93647.75;4377725;32;20198;-61
2022/09/28 04:29:45;;;;;;;0.13;0.13;;;;;;;10.17;88.52;93649.28;4399493;32;20192;-61
2022/09/28 04:32:12;;;;;;;0.10;0.10;;;;;;;10.09;89.18;93655.47;4389782;32;20193;-61
2022/09/28 04:34:39;;;;;;;0.00;0.00;;;;;;;10.23;88.75;93652.50;4412637;32;20207;-61
2022/09/28 04:37:06;;;;;;;0.00;0.00;;;;;;;10.12;89.03;93661.97;4387287;32;20196;-61
2022/09/28 04:39:33;;;;;;;0.00;0.00;;;;;;;10.12;89.22;93660.09;4413709;32;20289;-61
2022/09/28 04:41:58;;;;;;;0.00;0.00;;;;;;;10.30;88.46;93653.50;4415140;32;20208;-61
2022/09/28 04:44:25;;;;;;;0.00;0.00;;;;;;;10.14;89.34;93654.47;4383975;32;20191;-61
2022/09/28 04:47:03;;;;;;;0.00;0.00;;;;;;;10.10;89.51;93648.28;4370109;32;20282;-61
2022/09/28 04:49:28;;;;;;;0.13;0.13;;;;;;;9.97;89.94;93650.94;4350341;32;20196;-61
2022/09/28 04:51:55;;;;;;;0.97;0.30;;;;;;;9.86;90.06;93654.34;4395688;32;20196;-61
2022/09/28 04:54:23;;;;;;;0.10;0.10;;;;;;;10.00;90.03;93652.13;4400720;32;20208;-61
2022/09/28 04:56:50;;;;;;;0.10;0.10;;;;;;;10.07;89.49;93654.25;4402001;32;20255;-61
2022/09/28 04:59:17;;;;;;;0.13;0.13;;;;;;;10.24;89.22;93649.53;4381053;32;20295;-61
2022/09/28 05:01:46;;;;;;;0.27;0.20;;;;;;;10.32;88.75;93650.53;4388384;32;20232;-61
2022/09/28 05:04:16;;;;;;;0.10;0.10;;;;;;;10.29;88.91;93656.47;4393991;32;20210;-61
2022/09/28 05:06:42;;;;;;;0.00;0.00;;;;;;;10.42;88.48;93654.59;4388452;32;20200;-61
2022/09/28 05:09:09;;;;;;;0.10;0.10;;;;;;;10.37;88.27;93668.09;4408182;32;20215;-61
2022/09/28 05:11:38;;;;;;;0.07;0.07;;;;;;;10.36;88.15;93674.50;4386616;32;20184;-61
2022/09/28 05:14:04;;;;;;;0.07;0.07;;;;;;;10.37;88.62;93673.38;4394691;32;20239;-61
2022/09/28 05:16:32;;;;;;;0.10;0.10;;;;;;;10.34;88.66;93674.81;4375314;32;20192;-61
2022/09/28 05:18:59;;;;;;;0.03;0.03;;;;;;;10.27;89.32;93677.25;4387560;32;20189;-61
2022/09/28 05:21:26;;;;;;;0.00;0.00;;;;;;;10.31;89.03;93668.28;4386071;32;20214;-61
2022/09/28 05:23:55;;;;;;;0.10;0.10;;;;;;;10.27;89.42;93671.94;4368888;32;20196;-62
2022/09/28 05:26:22;;;;;;;0.00;0.00;;;;;;;10.33;89.82;93681.22;4380002;32;20276;-62
2022/09/28 05:28:49;;;;;;;0.23;0.23;;;;;;;10.25;89.91;93661.66;4382672;32;20208;-61
2022/09/28 05:31:17;;;;;;;0.17;0.17;;;;;;;10.14;91.03;93659.78;4393062;32;20270;-61
2022/09/28 05:33:43;;;;;;;0.30;0.13;;;;;;;10.23;91.07;93655.16;4395725;32;20238;-61
2022/09/28 05:36:13;;;;;;;0.30;0.30;;;;;;;10.27;91.16;93653.38;4378253;32;20196;-61
2022/09/28 05:38:39;;;;;;;0.10;0.10;;;;;;;10.11;91.46;93645.31;4358795;32;20276;-62
2022/09/28 05:41:05;;;;;;;0.20;0.20;;;;;;;10.21;91.67;93634.28;4403350;32;20200;-62
2022/09/28 05:43:31;;;;;;;0.23;0.23;;;;;;;10.08;91.87;93630.06;4383267;32;20210;-62
2022/09/28 05:45:59;;;;;;;0.00;0.00;;;;;;;10.03;92.16;93624.97;4392755;32;20232;-62
2022/09/28 05:48:26;;;;;;;0.03;0.03;;;;;;;10.15;92.01;93619.69;4390456;32;20189;-62
2022/09/28 05:50:54;;;;;;;0.10;0.10;;;;;;;10.16;91.87;93608.00;4396413;32;20188;-61
2022/09/28 05:53:21;;;;;;;0.00;0.00;;;;;;;10.12;92.78;93616.94;4384990;32;20324;-62
2022/09/28 05:55:49;;;;;;;0.30;0.30;;;;;;;10.10;92.99;93609.31;4370815;32;20267;-62
2022/09/28 05:58:18;;;;;;;0.23;0.23;;;;;;;10.15;93.13;93625.00;4394655;32;20212;-62
2022/09/28 06:00:44;;;;;;;3.47;1.30;;;;;;;10.24;92.85;93628.31;4376282;32;20184;-61
2022/09/28 06:03:12;;;;;;;1.60;0.87;;;;;;;10.67;99.84;93611.03;4392164;32;20200;-61
2022/09/28 06:05:42;;;;;;;1.10;1.00;;;;;;;11.20;100.00;93612.50;4413539;32;20248;-61
2022/09/28 06:08:10;;;;;;;1.20;0.67;;;;;;;11.67;100.00;93612.56;4409688;32;20212;-60
2022/09/28 06:10:36;;;;;;;0.30;0.30;;;;;;;11.74;99.58;93593.38;4378168;32;20180;-61
2022/09/28 06:13:01;;;;;;;0.93;0.53;;;;;;;11.80;97.04;93588.63;4389960;32;20242;-61
2022/09/28 06:15:31;;;;;;;0.60;0.60;;;;;;;11.98;96.21;93579.94;4378274;32;20219;-60
2022/09/28 06:18:00;;;;;;;0.20;0.20;;;;;;;11.96;94.07;93576.88;4388729;32;20180;-61
2022/09/28 06:20:31;;;;;;;0.00;0.00;;;;;;;12.23;94.14;93569.13;4394684;32;20192;-62
2022/09/28 06:22:58;;;;;;;0.57;0.50;;;;;;;12.16;92.44;93571.59;4394127;32;20221;-61
2022/09/28 06:25:26;;;;;;;0.00;0.00;;;;;;;12.11;92.34;93567.31;4387983;32;20195;-61
2022/09/28 06:28:00;;;;;;;0.07;0.07;;;;;;;12.19;92.45;93563.72;4383511;32;20185;-61
2022/09/28 06:30:29;;;;;;;0.20;0.20;;;;;;;12.21;89.91;93572.12;4377544;32;20180;-61
2022/09/28 06:32:57;;;;;;;1.43;0.50;;;;;;;12.38;92.31;93582.38;4387914;32;20187;-62
2022/09/28 06:35:24;;;;;;;4.43;0.73;;;;;;;12.41;94.38;93572.16;4393527;32;20248;-61
2022/09/28 06:37:52;;;;;;;0.67;0.47;;;;;;;12.46;93.81;93570.00;4388390;32;20252;-61
2022/09/28 06:40:20;;;;;;;0.50;0.30;;;;;;;12.26;93.15;93566.50;4363537;32;20241;-62
2022/09/28 06:43:18;;;;;;;0.50;0.50;;;;;;;12.21;90.74;93566.03;4354636;32;20243;-61
2022/09/28 06:45:50;;;;;;;0.20;0.20;;;;;;;12.29;92.12;93565.81;4356735;32;20181;-61
2022/09/28 06:48:16;;;;;;;1.03;0.47;;;;;;;12.34;90.68;93570.09;4387331;32;20234;-60
2022/09/28 06:50:44;;;;;;;0.10;0.10;;;;;;;12.38;89.39;93571.72;4394097;32;20241;-62
2022/09/28 06:53:13;;;;;;;0.23;0.23;;;;;;;12.44;89.29;93582.09;4375419;32;20233;-60
2022/09/28 06:55:49;;;;;;;0.47;0.07;;;;;;;12.64;89.05;93583.69;4392868;32;20183;-61
2022/09/28 06:58:18;;;;;;;0.10;0.10;;;;;;;12.19;86.12;93579.66;4400843;32;20180;-60
2022/09/28 07:00:46;;;;;;;0.10;0.10;;;;;;;11.70;86.48;93582.66;4362210;32;20248;-62
2022/09/28 07:03:16;;;;;;;0.10;0.10;;;;;;;11.18;88.98;93595.38;4407517;32;20202;-61
2022/09/28 07:05:46;;;;;;;0.10;0.10;;;;;;;11.40;88.46;93586.84;4405851;32;20196;-62
2022/09/28 07:08:13;;;;;;;0.00;0.00;;;;;;;11.34;88.58;93585.56;4379392;32;20188;-62
2022/09/28 07:10:44;;;;;;;0.30;0.10;;;;;;;11.25;89.17;93585.69;4398566;32;20251;-62
2022/09/28 07:13:15;;;;;;;0.00;0.00;;;;;;;11.18;90.00;93580.22;4388679;32;20194;-62
2022/09/28 07:15:44;;;;;;;0.20;0.20;;;;;;;11.02;90.17;93582.03;4351048;32;20176;-62
2022/09/28 07:18:12;;;;;;;0.00;0.00;;;;;;;10.92;90.54;93591.28;4369801;32;20184;-61
2022/09/28 07:20:39;;;;;;;0.97;0.50;;;;;;;11.10;90.27;93583.03;4396703;32;20188;-62
2022/09/28 07:23:06;;;;;;;0.00;0.00;;;;;;;11.10;90.62;93593.63;4389024;32;20251;-61
2022/09/28 07:25:32;;;;;;;0.20;0.20;;;;;;;11.03;90.72;93591.56;4394031;32;20249;-62
2022/09/28 07:27:58;;;;;;;0.20;0.20;;;;;;;11.20;89.91;93593.94;4381551;32;20192;-65
2022/09/28 07:30:46;;;;;;;0.10;0.10;;;;;;;10.85;90.76;93600.91;4382451;32;20198;-63
2022/09/28 07:33:14;;;;;;;0.00;0.00;;;;;;;10.81;91.01;93592.84;4388357;32;20188;-63
2022/09/28 07:36:09;;;;;;;0.10;0.10;;;;;;;10.95;91.11;93597.78;4374882;32;20192;-63
2022/09/28 07:38:37;;;;;;;0.30;0.30;;;;;;;10.91;91.34;93595.03;4385594;32;20192;-63
2022/09/28 07:41:13;;;;;;;0.07;0.07;;;;;;;10.93;90.81;93595.47;4389837;32;20202;-62
2022/09/28 07:43:43;;;;;;;0.00;0.00;;;;;;;11.00;91.06;93600.97;4386808;32;20184;-62
2022/09/28 07:46:13;;;;;;;0.20;0.20;;;;;;;10.87;91.92;93614.63;4362527;32;20184;-62
2022/09/28 07:48:53;;;;;;;0.00;0.00;;;;;;;11.12;91.20;93610.75;4389110;32;20291;-62
2022/09/28 07:51:20;;;;;;;0.10;0.10;;;;;;;11.05;91.41;93612.44;4369430;32;20280;-64
2022/09/28 07:53:48;;;;;;;0.07;0.07;;;;;;;11.14;91.31;93610.44;4378796;32;20189;-63
2022/09/28 07:56:18;;;;;;;0.20;0.20;;;;;;;10.96;91.81;93615.25;4374206;32;20180;-63
2022/09/28 07:59:01;;;;;;;0.20;0.20;;;;;;;11.10;91.50;93612.97;4385028;32;20238;-65
2022/09/28 08:01:29;;;;;;;0.20;0.20;;;;;;;11.15;91.50;93609.31;4393555;32;20207;-65
2022/09/28 08:04:14;;;;;;;0.20;0.20;;;;;;;11.41;91.04;93611.53;4400024;32;20252;-62
2022/09/28 08:06:44;;;;;;;0.00;0.00;;;;;;;11.52;90.03;93615.22;4377838;32;20199;-62
2022/09/28 08:09:09;;;;;;;0.40;0.40;;;;;;;11.23;91.16;93614.47;4398359;32;20184;-62
2022/09/28 08:11:37;;;;;;;0.10;0.10;;;;;;;11.22;91.88;93612.16;4399599;32;20183;-62
2022/09/28 08:14:05;;;;;;;0.20;0.20;;;;;;;11.40;91.04;93612.63;4397905;32;20270;-61
2022/09/28 08:16:33;;;;;;;2.23;0.10;;;;;;;11.40;91.35;93618.72;4387367;32;20188;-61
2022/09/28 08:18:59;;;;;;;0.10;0.10;;;;;;;11.51;90.89;93616.31;4393239;32;20192;-62
2022/09/28 08:24:12;;;;;;;0.23;0.23;;;;;;;11.61;91.59;93632.53;4393004;32;20249;-62
2022/09/28 08:26:37;;;;;;;0.10;0.10;;;;;;;11.24;91.95;93636.47;4391702;32;20188;-62
2022/09/28 08:29:05;;;;;;;0.97;0.13;;;;;;;11.19;92.12;93634.06;4391623;32;20243;-62
2022/09/28 08:31:30;;;;;;;0.00;0.00;;;;;;;11.49;92.08;93627.28;4383589;32;20180;-63
2022/09/28 08:33:56;;;;;;;0.07;0.07;;;;;;;11.61;91.96;93635.19;4391976;32;20187;-62
2022/09/28 08:36:27;;;;;;;0.23;0.23;;;;;;;11.61;91.41;93640.50;4330089;32;20340;-62
2022/09/28 08:38:54;;;;;;;0.10;0.10;;;;;;;11.76;92.08;93635.53;4331265;32;20185;-62
2022/09/28 08:41:44;;;;;;;0.10;0.10;;;;;;;11.63;91.83;93638.28;4396710;32;20267;-62
2022/09/28 08:44:22;;;;;;;0.10;0.10;;;;;;;11.60;91.87;93636.31;4392000;32;20309;-63
2022/09/28 08:47:03;;;;;;;0.10;0.10;;;;;;;11.75;91.44;93639.31;4364178;32;20191;-65
2022/09/28 08:49:47;;;;;;;0.00;0.00;;;;;;;11.67;92.31;93641.78;4412340;32;20188;-63
2022/09/28 08:52:22;;;;;;;0.00;0.00;;;;;;;11.91;90.82;93642.78;4402681;32;20223;-63
2022/09/28 08:55:03;;;;;;;0.57;0.30;;;;;;;11.84;90.40;93647.94;4397056;32;20192;-63
2022/09/28 08:57:44;;;;;;;0.30;0.30;;;;;;;11.63;90.74;93643.59;4385896;32;20248;-64
2022/09/28 09:00:32;;;;;;;0.00;0.00;;;;;;;11.61;92.71;93647.69;4385445;32;20192;-64
2022/09/28 09:03:10;;;;;;;0.20;0.20;;;;;;;11.65;91.83;93651.97;4366783;32;20260;-64
2022/09/28 09:06:03;;;;;;;0.20;0.20;;;;;;;11.93;92.93;93651.94;4364659;32;20279;-63
2022/09/28 09:09:09;;;;;;;0.10;0.10;;;;;;;11.86;92.53;93657.09;4359331;32;20266;-63
2022/09/28 09:12:13;;;;;;;0.17;0.17;;;;;;;11.93;91.34;93667.13;4382438;32;20179;-64
2022/09/28 09:15:23;;;;;;;2.03;0.30;;;;;;;11.47;93.64;93666.69;4382561;32;20188;-64
2022/09/28 09:18:09;;;;;;;0.10;0.10;;;;;;;11.68;94.00;93699.09;4385688;32;20245;-65
2022/09/28 09:21:20;;;;;;;0.03;0.03;;;;;;;11.82;92.64;93727.22;4401656;32;20242;-62
2022/09/28 09:24:02;;;;;;;0.20;0.20;;;;;;;11.34;89.02;93729.69;4335179;32;20211;-64
2022/09/28 09:26:38;;;;;;;0.00;0.00;;;;;;;10.89;92.62;93735.19;4369842;32;20238;-64
2022/09/28 09:29:06;;;;;;;0.00;0.00;;;;;;;10.73;91.75;93737.00;4379680;32;20325;-64
2022/09/28 09:31:53;;;;;;;0.00;0.00;;;;;;;10.63;91.54;93742.72;4392362;32;20206;-63
2022/09/28 09:34:48;;;;;;;0.00;0.00;;;;;;;10.68;91.30;93747.81;4399170;32;20193;-63
2022/09/28 09:37:56;;;;;;;0.03;0.03;;;;;;;10.56;90.94;93748.59;4379877;32;20255;-63
2022/09/28 09:41:03;;;;;;;0.00;0.00;;;;;;;10.51;93.48;93743.50;4315699;32;20197;-63
2022/09/28 09:44:06;;;;;;;0.20;0.20;;;;;;;10.67;95.01;93747.03;4351769;32;20239;-64
2022/09/28 09:46:45;;;;;;;0.00;0.00;;;;;;;10.71;92.63;93747.16;4343113;32;20189;-63
2022/09/28 09:49:54;;;;;;;0.23;0.23;;;;;;;10.98;91.99;93757.09;4347203;32;20299;-64
2022/09/28 09:52:56;;;;;;;0.40;0.40;;;;;;;11.00;90.99;93757.53;4375913;32;20192;-63
2022/09/28 09:55:44;;;;;;;0.00;0.00;;;;;;;10.96;91.90;93764.59;4360952;32;20195;-63
2022/09/28 09:58:20;;;;;;;0.10;0.10;;;;;;;10.94;90.66;93760.75;4381484;32;20258;-65
2022/09/28 10:00:53;;;;;;;0.03;0.03;;;;;;;10.85;92.46;93760.06;4404166;32;20270;-63
2022/09/28 10:03:26;;;;;;;1.07;0.40;;;;;;;10.59;94.37;93773.69;4381598;32;20219;-63
2022/09/28 10:06:06;;;;;;;0.23;0.23;;;;;;;10.86;94.05;93774.87;4392347;32;20204;-63
2022/09/28 10:08:38;;;;;;;0.10;0.10;;;;;;;11.14;93.38;93775.75;4391265;32;20192;-64
2022/09/28 10:11:19;;;;;;;0.10;0.10;;;;;;;11.28;92.87;93775.38;4380995;32;20292;-63
2022/09/28 10:13:49;;;;;;;0.00;0.00;;;;;;;11.46;90.80;93770.56;4391865;32;20188;-63
2022/09/28 10:16:24;;;;;;;0.13;0.10;;;;;;;11.14;91.34;93786.34;4397173;32;20180;-62
2022/09/28 10:18:51;;;;;;;0.63;0.33;;;;;;;11.86;96.85;93774.00;4388850;32;20263;-63
2022/09/28 10:21:24;;;;;;;0.10;0.10;;;;;;;12.49;94.56;93768.78;4395012;32;20218;-65
2022/09/28 10:23:57;;;;;;;0.00;0.00;;;;;;;12.94;89.37;93765.66;4398871;32;20283;-63
2022/09/28 10:26:39;;;;;;;0.00;0.00;;;;;;;13.18;87.53;93778.00;4387968;32;20233;-63
2022/09/28 10:29:19;;;;;;;0.33;0.33;;;;;;;13.22;85.14;93794.06;4394231;32;20224;-64
2022/09/28 10:31:48;;;;;;;0.00;0.00;;;;;;;12.10;87.00;93793.59;4416880;32;20195;-63
2022/09/28 10:34:18;;;;;;;0.10;0.10;;;;;;;11.95;87.25;93795.13;4388057;32;20246;-63
2022/09/28 10:36:59;;;;;;;1.43;0.33;;;;;;;11.80;88.32;93793.97;4385804;32;20295;-63
2022/09/28 10:39:46;;;;;;;0.00;0.00;;;;;;;11.39;91.54;93787.09;4391775;32;20185;-64
2022/09/28 10:42:22;;;;;;;0.10;0.10;;;;;;;11.33;92.14;93788.44;4390958;32;20188;-63
2022/09/28 10:45:11;;;;;;;0.10;0.10;;;;;;;11.46;92.14;93792.59;4387670;32;20199;-63
2022/09/28 10:47:43;;;;;;;2.43;0.47;;;;;;;11.16;92.79;93800.06;4396309;32;20243;-63
2022/09/28 10:50:25;;;;;;;0.03;0.03;;;;;;;11.19;92.89;93803.94;4382281;32;20192;-63
2022/09/28 10:52:53;;;;;;;0.50;0.30;;;;;;;11.09;93.34;93809.69;4370121;32;20198;-63
2022/09/28 10:55:28;;;;;;;0.27;0.27;;;;;;;11.11;94.44;93807.47;4380286;32;20206;-63
2022/09/28 10:57:55;;;;;;;0.07;0.07;;;;;;;11.15;95.14;93808.38;4361500;32;20218;-63
2022/09/28 11:00:42;;;;;;;0.00;0.00;;;;;;;11.00;94.57;93815.12;4366625;32;20192;-63
2022/09/28 11:03:28;;;;;;;1.00;0.33;;;;;;;10.82;95.44;93803.94;4352240;32;20196;-63
2022/09/28 11:06:00;;;;;;;0.03;0.03;;;;;;;10.97;96.05;93800.66;4365067;32;20191;-63
2022/09/28 11:08:39;;;;;;;0.40;0.40;;;;;;;10.85;95.06;93787.38;4387471;32;20192;-63
2022/09/28 11:11:11;;;;;;;0.10;0.10;;;;;;;10.93;95.12;93791.81;4390435;32;20207;-63
2022/09/28 11:13:44;;;;;;;0.73;0.73;;;;;;;11.18;93.99;93789.13;4371048;32;20255;-63
2022/09/28 11:16:28;;;;;;;0.20;0.20;;;;;;;11.16;94.76;93784.16;4391010;32;20184;-63
2022/09/28 11:18:56;;;;;;;0.10;0.10;;;;;;;11.31;95.16;93791.41;4383788;32;20192;-63
2022/09/28 11:21:31;;;;;;;0.33;0.33;;;;;;;11.26;95.60;93804.13;4394265;32;20272;-63
2022/09/28 11:24:28;;;;;;;0.50;0.50;;;;;;;11.20;95.14;93806.28;4340667;32;20311;-67
2022/09/28 11:26:58;;;;;;;0.13;0.13;;;;;;;11.35;94.82;93792.28;4371826;32;20202;-63
2022/09/28 11:29:44;;;;;;;0.00;0.00;;;;;;;11.18;94.59;93797.09;4383836;32;20184;-63
2022/09/28 11:32:11;;;;;;;0.30;0.30;;;;;;;11.35;93.65;93794.19;4367928;32;20189;-63
2022/09/28 11:34:51;;;;;;;0.30;0.30;;;;;;;11.39;92.88;93799.59;4404925;32;20196;-63
2022/09/28 11:37:30;;;;;;;0.03;0.03;;;;;;;11.24;94.46;93811.66;4370010;32;20214;-64
2022/09/28 11:40:25;;;;;;;0.67;0.47;;;;;;;10.98;95.42;93815.47;4393523;32;20203;-64
2022/09/28 11:43:11;;;;;;;0.37;0.37;;;;;;;11.25;95.20;93816.62;4384137;32;20253;-64
2022/09/28 11:46:11;;;;;;;0.20;0.20;;;;;;;11.23;95.48;93799.50;4400286;32;20184;-63
2022/09/28 11:48:44;;;;;;;0.10;0.10;;;;;;;11.20;95.77;93793.00;4373738;32;20187;-62
2022/09/28 11:51:31;;;;;;;0.13;0.13;;;;;;;11.43;94.51;93789.84;4375503;32;20223;-62
2022/09/28 11:54:12;;;;;;;0.50;0.50;;;;;;;11.49;93.89;93785.84;4385599;32;20223;-64
2022/09/28 11:57:02;;;;;;;0.27;0.27;;;;;;;11.41;94.37;93808.00;4392256;32;20216;-63
2022/09/28 11:59:51;;;;;;;0.20;0.20;;;;;;;11.52;93.81;93811.72;4366321;32;20180;-65
2022/09/28 12:02:43;;;;;;;0.20;0.20;;;;;;;11.51;94.58;93818.16;4374535;32;20259;-64
2022/09/28 12:05:37;;;;;;;0.30;0.30;;;;;;;11.50;94.02;93817.38;4391508;32;20192;-62
2022/09/28 12:08:53;;;;;;;0.30;0.30;;;;;;;11.57;93.97;93819.47;4386457;32;20285;-62
2022/09/28 12:11:31;;;;;;;0.37;0.23;;;;;;;11.67;94.18;93819.75;4333010;32;20256;-62
2022/09/28 12:14:02;;;;;;;0.10;0.10;;;;;;;11.60;92.76;93819.56;4376157;32;20251;-63
2022/09/28 12:16:43;;;;;;;0.10;0.10;;;;;;;11.74;93.08;93815.75;4396564;32;20226;-62